sensor_id;sensor_type;location;lat;lon;timestamp;temperature;humidity
20735;DHT22;10528;52.124;5.196;2023-04-15T00:01:36;10.00;99.90
20735;DHT22;10528;52.124;5.196;2023-04-15T00:04:03;10.10;99.90
20735;DHT22;10528;52.124;5.196;2023-04-15T00:06:30;10.00;99.90
20735;DHT22;10528;52.124;5.196;2023-04-15T00:08:57;10.00;99.90
20735;DHT22;10528;52.124;5.196;2023-04-15T00:11:24;10.00;99.90
20735;DHT22;10528;52.124;5.196;2023-04-15T00:13:51;10.00;99.90
20735;DHT22;10528;52.124;5.196;2023-04-15T00:16:18;10.00;99.90
20735;DHT22;10528;52.124;5.196;2023-04-15T00:18:45;10.00;99.90
20735;DHT22;10528;52.124;5.196;2023-04-15T00:21:12;10.00;99.90
20735;DHT22;10528;52.124;5.196;2023-04-15T00:23:39;10.00;99.90
20735;DHT22;10528;52.124;5.196;2023-04-15T00:26:06;9.90;99.90
20735;DHT22;10528;52.124;5.196;2023-04-15T00:28:33;9.90;99.90
20735;DHT22;10528;52.124;5.196;2023-04-15T00:30:59;9.90;99.90
20735;DHT22;10528;52.124;5.196;2023-04-15T00:33:26;9.90;99.90
20735;DHT22;10528;52.124;5.196;2023-04-15T00:35:53;9.80;99.90
20735;DHT22;10528;52.124;5.196;2023-04-15T00:38:20;9.90;99.90
20735;DHT22;10528;52.124;5.196;2023-04-15T00:40:47;9.80;99.90
20735;DHT22;10528;52.124;5.196;2023-04-15T00:43:15;9.70;99.90
20735;DHT22;10528;52.124;5.196;2023-04-15T00:45:43;9.70;99.90
20735;DHT22;10528;52.124;5.196;2023-04-15T00:48:10;9.70;99.90
20735;DHT22;10528;52.124;5.196;2023-04-15T00:50:38;9.70;99.90
20735;DHT22;10528;52.124;5.196;2023-04-15T00:53:05;9.60;99.90
20735;DHT22;10528;52.124;5.196;2023-04-15T00:55:31;9.60;99.90
20735;DHT22;10528;52.124;5.196;2023-04-15T00:57:58;9.70;99.90
20735;DHT22;10528;52.124;5.196;2023-04-15T01:00:25;9.70;99.90
20735;DHT22;10528;52.124;5.196;2023-04-15T01:02:52;9.60;99.90
20735;DHT22;10528;52.124;5.196;2023-04-15T01:05:19;9.50;99.90
20735;DHT22;10528;52.124;5.196;2023-04-15T01:07:47;9.50;99.90
20735;DHT22;10528;52.124;5.196;2023-04-15T01:10:14;9.60;99.90
20735;DHT22;10528;52.124;5.196;2023-04-15T01:12:41;9.50;99.90
20735;DHT22;10528;52.124;5.196;2023-04-15T01:15:09;9.50;99.90
20735;DHT22;10528;52.124;5.196;2023-04-15T01:17:37;9.50;99.90
20735;DHT22;10528;52.124;5.196;2023-04-15T01:20:06;9.50;99.90
20735;DHT22;10528;52.124;5.196;2023-04-15T01:22:36;9.40;99.90
20735;DHT22;10528;52.124;5.196;2023-04-15T01:25:12;9.40;99.90
20735;DHT22;10528;52.124;5.196;2023-04-15T01:27:43;9.40;99.90
20735;DHT22;10528;52.124;5.196;2023-04-15T01:30:10;9.40;99.90
20735;DHT22;10528;52.124;5.196;2023-04-15T01:32:37;9.30;99.90
20735;DHT22;10528;52.124;5.196;2023-04-15T01:35:05;9.20;99.90
20735;DHT22;10528;52.124;5.196;2023-04-15T01:37:33;9.20;99.90
20735;DHT22;10528;52.124;5.196;2023-04-15T01:40:00;9.20;99.90
20735;DHT22;10528;52.124;5.196;2023-04-15T01:42:27;9.20;99.90
20735;DHT22;10528;52.124;5.196;2023-04-15T01:44:53;9.20;99.90
20735;DHT22;10528;52.124;5.196;2023-04-15T01:47:20;9.10;99.90
20735;DHT22;10528;52.124;5.196;2023-04-15T01:49:48;9.10;99.90
20735;DHT22;10528;52.124;5.196;2023-04-15T01:52:14;9.10;99.90
20735;DHT22;10528;52.124;5.196;2023-04-15T01:54:41;9.00;99.90
20735;DHT22;10528;52.124;5.196;2023-04-15T01:57:08;9.00;99.90
20735;DHT22;10528;52.124;5.196;2023-04-15T01:59:35;9.00;99.90
20735;DHT22;10528;52.124;5.196;2023-04-15T02:02:03;9.00;99.90
20735;DHT22;10528;52.124;5.196;2023-04-15T02:04:31;8.90;99.90
20735;DHT22;10528;52.124;5.196;2023-04-15T02:06:59;8.80;99.90
20735;DHT22;10528;52.124;5.196;2023-04-15T02:09:26;8.90;99.90
20735;DHT22;10528;52.124;5.196;2023-04-15T02:11:53;8.80;99.90
20735;DHT22;10528;52.124;5.196;2023-04-15T02:14:20;8.80;99.90
20735;DHT22;10528;52.124;5.196;2023-04-15T02:16:47;8.80;99.90
20735;DHT22;10528;52.124;5.196;2023-04-15T02:19:14;8.70;99.90
20735;DHT22;10528;52.124;5.196;2023-04-15T02:21:41;8.60;99.90
20735;DHT22;10528;52.124;5.196;2023-04-15T02:24:08;8.60;99.90
20735;DHT22;10528;52.124;5.196;2023-04-15T02:26:35;8.70;99.90
20735;DHT22;10528;52.124;5.196;2023-04-15T02:29:02;8.60;99.90
20735;DHT22;10528;52.124;5.196;2023-04-15T02:31:29;8.60;99.90
20735;DHT22;10528;52.124;5.196;2023-04-15T02:33:59;8.50;99.90
20735;DHT22;10528;52.124;5.196;2023-04-15T02:36:29;8.40;99.90
20735;DHT22;10528;52.124;5.196;2023-04-15T02:38:57;8.50;99.90
20735;DHT22;10528;52.124;5.196;2023-04-15T02:41:25;8.40;99.90
20735;DHT22;10528;52.124;5.196;2023-04-15T02:43:54;8.40;99.90
20735;DHT22;10528;52.124;5.196;2023-04-15T02:46:21;8.40;99.90
20735;DHT22;10528;52.124;5.196;2023-04-15T02:48:49;8.30;99.90
20735;DHT22;10528;52.124;5.196;2023-04-15T02:51:21;8.20;99.90
20735;DHT22;10528;52.124;5.196;2023-04-15T02:53:48;8.10;99.90
20735;DHT22;10528;52.124;5.196;2023-04-15T02:56:16;8.20;99.90
20735;DHT22;10528;52.124;5.196;2023-04-15T02:58:44;8.10;99.90
20735;DHT22;10528;52.124;5.196;2023-04-15T03:01:11;8.00;99.90
20735;DHT22;10528;52.124;5.196;2023-04-15T03:03:40;7.90;99.90
20735;DHT22;10528;52.124;5.196;2023-04-15T03:06:07;7.90;99.90
20735;DHT22;10528;52.124;5.196;2023-04-15T03:08:34;7.90;99.90
20735;DHT22;10528;52.124;5.196;2023-04-15T03:11:01;7.90;99.90
20735;DHT22;10528;52.124;5.196;2023-04-15T03:13:29;7.90;99.90
20735;DHT22;10528;52.124;5.196;2023-04-15T03:15:57;7.90;99.90
20735;DHT22;10528;52.124;5.196;2023-04-15T03:18:25;7.80;99.90
20735;DHT22;10528;52.124;5.196;2023-04-15T03:20:52;7.80;99.90
20735;DHT22;10528;52.124;5.196;2023-04-15T03:23:19;7.70;99.90
20735;DHT22;10528;52.124;5.196;2023-04-15T03:25:47;7.70;99.90
20735;DHT22;10528;52.124;5.196;2023-04-15T03:28:14;7.70;99.90
20735;DHT22;10528;52.124;5.196;2023-04-15T03:30:41;7.60;99.90
20735;DHT22;10528;52.124;5.196;2023-04-15T03:33:08;7.70;99.90
20735;DHT22;10528;52.124;5.196;2023-04-15T03:35:35;7.50;99.90
20735;DHT22;10528;52.124;5.196;2023-04-15T03:38:03;7.50;99.90
20735;DHT22;10528;52.124;5.196;2023-04-15T03:40:29;7.50;99.90
20735;DHT22;10528;52.124;5.196;2023-04-15T03:42:56;7.50;99.90
20735;DHT22;10528;52.124;5.196;2023-04-15T03:45:23;7.40;99.90
20735;DHT22;10528;52.124;5.196;2023-04-15T03:47:50;7.40;99.90
20735;DHT22;10528;52.124;5.196;2023-04-15T03:50:18;7.40;99.90
20735;DHT22;10528;52.124;5.196;2023-04-15T03:52:45;7.40;99.90
20735;DHT22;10528;52.124;5.196;2023-04-15T03:55:11;7.40;99.90
20735;DHT22;10528;52.124;5.196;2023-04-15T03:57:39;7.30;99.90
20735;DHT22;10528;52.124;5.196;2023-04-15T04:00:07;7.30;99.90
20735;DHT22;10528;52.124;5.196;2023-04-15T04:02:38;7.30;99.90
20735;DHT22;10528;52.124;5.196;2023-04-15T04:05:05;7.30;99.90
20735;DHT22;10528;52.124;5.196;2023-04-15T04:07:32;7.20;99.90
20735;DHT22;10528;52.124;5.196;2023-04-15T04:09:59;7.20;99.90
20735;DHT22;10528;52.124;5.196;2023-04-15T04:12:26;7.20;99.90
20735;DHT22;10528;52.124;5.196;2023-04-15T04:14:52;7.10;99.90
20735;DHT22;10528;52.124;5.196;2023-04-15T04:17:19;7.20;99.90
20735;DHT22;10528;52.124;5.196;2023-04-15T04:19:46;7.10;99.90
20735;DHT22;10528;52.124;5.196;2023-04-15T04:22:13;7.10;99.90
20735;DHT22;10528;52.124;5.196;2023-04-15T04:24:40;7.10;99.90
20735;DHT22;10528;52.124;5.196;2023-04-15T04:27:06;7.00;99.90
20735;DHT22;10528;52.124;5.196;2023-04-15T04:29:33;7.00;99.90
20735;DHT22;10528;52.124;5.196;2023-04-15T04:32:00;7.00;99.90
20735;DHT22;10528;52.124;5.196;2023-04-15T04:34:27;6.80;99.90
20735;DHT22;10528;52.124;5.196;2023-04-15T04:36:54;6.80;99.90
20735;DHT22;10528;52.124;5.196;2023-04-15T04:39:21;6.90;99.90
20735;DHT22;10528;52.124;5.196;2023-04-15T04:41:48;6.90;99.90
20735;DHT22;10528;52.124;5.196;2023-04-15T04:44:16;6.80;99.90
20735;DHT22;10528;52.124;5.196;2023-04-15T04:46:43;6.80;99.90
20735;DHT22;10528;52.124;5.196;2023-04-15T04:49:09;6.80;99.90
20735;DHT22;10528;52.124;5.196;2023-04-15T04:51:36;6.70;99.90
20735;DHT22;10528;52.124;5.196;2023-04-15T04:54:03;6.80;99.90
20735;DHT22;10528;52.124;5.196;2023-04-15T04:56:30;6.70;99.90
20735;DHT22;10528;52.124;5.196;2023-04-15T04:58:57;6.80;99.90
20735;DHT22;10528;52.124;5.196;2023-04-15T05:01:24;6.80;99.90
20735;DHT22;10528;52.124;5.196;2023-04-15T05:03:53;6.70;99.90
20735;DHT22;10528;52.124;5.196;2023-04-15T05:06:21;6.80;99.90
20735;DHT22;10528;52.124;5.196;2023-04-15T05:08:48;6.80;99.90
20735;DHT22;10528;52.124;5.196;2023-04-15T05:11:14;6.80;99.90
20735;DHT22;10528;52.124;5.196;2023-04-15T05:13:41;6.80;99.90
20735;DHT22;10528;52.124;5.196;2023-04-15T05:16:08;6.70;99.90
20735;DHT22;10528;52.124;5.196;2023-04-15T05:18:35;6.80;99.90
20735;DHT22;10528;52.124;5.196;2023-04-15T05:21:02;6.80;99.90
20735;DHT22;10528;52.124;5.196;2023-04-15T05:23:29;6.80;99.90
20735;DHT22;10528;52.124;5.196;2023-04-15T05:25:56;6.80;99.90
20735;DHT22;10528;52.124;5.196;2023-04-15T05:28:23;6.80;99.90
20735;DHT22;10528;52.124;5.196;2023-04-15T05:30:50;6.90;99.90
20735;DHT22;10528;52.124;5.196;2023-04-15T05:33:17;6.90;99.90
20735;DHT22;10528;52.124;5.196;2023-04-15T05:35:44;6.90;99.90
20735;DHT22;10528;52.124;5.196;2023-04-15T05:38:11;6.80;99.90
20735;DHT22;10528;52.124;5.196;2023-04-15T05:40:38;6.90;99.90
20735;DHT22;10528;52.124;5.196;2023-04-15T05:43:05;6.90;99.90
20735;DHT22;10528;52.124;5.196;2023-04-15T05:45:32;6.90;99.90
20735;DHT22;10528;52.124;5.196;2023-04-15T05:47:59;6.90;99.90
20735;DHT22;10528;52.124;5.196;2023-04-15T05:50:26;7.00;99.90
20735;DHT22;10528;52.124;5.196;2023-04-15T05:52:52;7.00;99.90
20735;DHT22;10528;52.124;5.196;2023-04-15T05:55:19;7.10;99.90
20735;DHT22;10528;52.124;5.196;2023-04-15T05:57:46;7.20;99.90
20735;DHT22;10528;52.124;5.196;2023-04-15T06:00:13;7.20;99.90
20735;DHT22;10528;52.124;5.196;2023-04-15T06:02:40;7.30;99.90
20735;DHT22;10528;52.124;5.196;2023-04-15T06:05:08;7.30;99.90
20735;DHT22;10528;52.124;5.196;2023-04-15T06:07:37;7.40;99.90
20735;DHT22;10528;52.124;5.196;2023-04-15T06:10:04;7.40;99.90
20735;DHT22;10528;52.124;5.196;2023-04-15T06:12:32;7.30;99.90
20735;DHT22;10528;52.124;5.196;2023-04-15T06:14:59;7.50;99.90
20735;DHT22;10528;52.124;5.196;2023-04-15T06:17:26;7.50;99.90
20735;DHT22;10528;52.124;5.196;2023-04-15T06:19:53;7.60;99.90
20735;DHT22;10528;52.124;5.196;2023-04-15T06:22:22;7.60;99.90
20735;DHT22;10528;52.124;5.196;2023-04-15T06:24:49;7.60;99.90
20735;DHT22;10528;52.124;5.196;2023-04-15T06:27:17;7.60;99.90
20735;DHT22;10528;52.124;5.196;2023-04-15T06:29:44;7.70;99.90
20735;DHT22;10528;52.124;5.196;2023-04-15T06:32:11;7.70;99.90
20735;DHT22;10528;52.124;5.196;2023-04-15T06:34:38;7.80;99.90
20735;DHT22;10528;52.124;5.196;2023-04-15T06:37:05;7.90;99.90
20735;DHT22;10528;52.124;5.196;2023-04-15T06:39:32;8.00;99.90
20735;DHT22;10528;52.124;5.196;2023-04-15T06:41:59;8.30;99.90
20735;DHT22;10528;52.124;5.196;2023-04-15T06:44:26;8.50;99.90
20735;DHT22;10528;52.124;5.196;2023-04-15T06:46:54;8.70;99.90
20735;DHT22;10528;52.124;5.196;2023-04-15T06:49:22;8.70;99.90
20735;DHT22;10528;52.124;5.196;2023-04-15T06:51:48;8.80;99.90
20735;DHT22;10528;52.124;5.196;2023-04-15T06:54:16;9.10;99.90
20735;DHT22;10528;52.124;5.196;2023-04-15T06:56:43;9.10;99.90
20735;DHT22;10528;52.124;5.196;2023-04-15T06:59:11;9.20;99.90
20735;DHT22;10528;52.124;5.196;2023-04-15T07:01:41;9.20;99.90
20735;DHT22;10528;52.124;5.196;2023-04-15T07:04:08;9.20;99.90
20735;DHT22;10528;52.124;5.196;2023-04-15T07:06:35;9.30;99.90
20735;DHT22;10528;52.124;5.196;2023-04-15T07:09:02;9.50;99.90
20735;DHT22;10528;52.124;5.196;2023-04-15T07:11:31;9.50;99.90
20735;DHT22;10528;52.124;5.196;2023-04-15T07:13:58;9.60;99.90
20735;DHT22;10528;52.124;5.196;2023-04-15T07:16:25;9.80;99.90
20735;DHT22;10528;52.124;5.196;2023-04-15T07:18:55;9.70;99.90
20735;DHT22;10528;52.124;5.196;2023-04-15T07:21:23;9.70;99.90
20735;DHT22;10528;52.124;5.196;2023-04-15T07:23:51;9.70;99.90
20735;DHT22;10528;52.124;5.196;2023-04-15T07:26:18;9.90;99.90
20735;DHT22;10528;52.124;5.196;2023-04-15T07:28:45;9.90;99.90
20735;DHT22;10528;52.124;5.196;2023-04-15T07:31:12;10.00;99.90
20735;DHT22;10528;52.124;5.196;2023-04-15T07:33:40;10.00;99.90
20735;DHT22;10528;52.124;5.196;2023-04-15T07:36:07;10.20;99.90
20735;DHT22;10528;52.124;5.196;2023-04-15T07:38:34;10.20;99.90
20735;DHT22;10528;52.124;5.196;2023-04-15T07:41:01;10.30;99.90
20735;DHT22;10528;52.124;5.196;2023-04-15T07:43:28;10.30;99.90
20735;DHT22;10528;52.124;5.196;2023-04-15T07:45:55;10.50;99.90
20735;DHT22;10528;52.124;5.196;2023-04-15T07:48:22;10.70;99.90
20735;DHT22;10528;52.124;5.196;2023-04-15T07:50:49;10.70;99.90
20735;DHT22;10528;52.124;5.196;2023-04-15T07:53:16;10.90;99.90
20735;DHT22;10528;52.124;5.196;2023-04-15T07:55:42;11.00;99.90
20735;DHT22;10528;52.124;5.196;2023-04-15T07:58:09;11.00;99.90
20735;DHT22;10528;52.124;5.196;2023-04-15T08:00:37;10.90;99.90
20735;DHT22;10528;52.124;5.196;2023-04-15T08:03:04;11.10;99.90
20735;DHT22;10528;52.124;5.196;2023-04-15T08:05:31;11.20;99.90
20735;DHT22;10528;52.124;5.196;2023-04-15T08:07:58;11.10;99.90
20735;DHT22;10528;52.124;5.196;2023-04-15T08:10:25;11.20;99.90
20735;DHT22;10528;52.124;5.196;2023-04-15T08:12:53;11.30;99.90
20735;DHT22;10528;52.124;5.196;2023-04-15T08:15:20;11.40;99.90
20735;DHT22;10528;52.124;5.196;2023-04-15T08:17:47;11.30;99.90
20735;DHT22;10528;52.124;5.196;2023-04-15T08:20:14;11.50;99.90
20735;DHT22;10528;52.124;5.196;2023-04-15T08:22:41;11.40;99.90
20735;DHT22;10528;52.124;5.196;2023-04-15T08:25:08;11.60;99.90
20735;DHT22;10528;52.124;5.196;2023-04-15T08:27:35;11.60;99.90
20735;DHT22;10528;52.124;5.196;2023-04-15T08:30:03;11.70;99.90
20735;DHT22;10528;52.124;5.196;2023-04-15T08:32:31;11.80;99.90
20735;DHT22;10528;52.124;5.196;2023-04-15T08:34:57;12.00;99.90
20735;DHT22;10528;52.124;5.196;2023-04-15T08:37:24;12.00;99.90
20735;DHT22;10528;52.124;5.196;2023-04-15T08:39:52;12.10;99.90
20735;DHT22;10528;52.124;5.196;2023-04-15T08:42:24;12.10;99.90
20735;DHT22;10528;52.124;5.196;2023-04-15T08:44:58;12.30;99.90
20735;DHT22;10528;52.124;5.196;2023-04-15T08:47:29;12.40;99.90
20735;DHT22;10528;52.124;5.196;2023-04-15T08:50:02;12.40;99.90
20735;DHT22;10528;52.124;5.196;2023-04-15T08:52:30;12.60;99.90
20735;DHT22;10528;52.124;5.196;2023-04-15T08:54:59;12.60;99.90
20735;DHT22;10528;52.124;5.196;2023-04-15T08:57:28;12.50;99.90
20735;DHT22;10528;52.124;5.196;2023-04-15T08:59:55;12.50;99.90
20735;DHT22;10528;52.124;5.196;2023-04-15T09:02:24;12.50;99.90
20735;DHT22;10528;52.124;5.196;2023-04-15T09:04:53;12.70;99.90
20735;DHT22;10528;52.124;5.196;2023-04-15T09:07:20;12.60;99.90
20735;DHT22;10528;52.124;5.196;2023-04-15T09:09:47;12.70;99.90
20735;DHT22;10528;52.124;5.196;2023-04-15T09:12:14;12.70;99.90
20735;DHT22;10528;52.124;5.196;2023-04-15T09:14:46;13.00;99.90
20735;DHT22;10528;52.124;5.196;2023-04-15T09:17:18;13.10;99.90
20735;DHT22;10528;52.124;5.196;2023-04-15T09:19:46;13.10;99.90
20735;DHT22;10528;52.124;5.196;2023-04-15T09:22:14;13.10;99.90
20735;DHT22;10528;52.124;5.196;2023-04-15T09:24:41;13.30;99.90
20735;DHT22;10528;52.124;5.196;2023-04-15T09:27:09;13.30;99.90
20735;DHT22;10528;52.124;5.196;2023-04-15T09:29:36;13.20;99.90
20735;DHT22;10528;52.124;5.196;2023-04-15T09:32:13;13.00;99.90
20735;DHT22;10528;52.124;5.196;2023-04-15T09:34:41;12.90;99.90
20735;DHT22;10528;52.124;5.196;2023-04-15T09:37:08;12.90;99.90
20735;DHT22;10528;52.124;5.196;2023-04-15T09:39:50;12.80;99.90
20735;DHT22;10528;52.124;5.196;2023-04-15T09:42:18;12.90;99.90
20735;DHT22;10528;52.124;5.196;2023-04-15T09:44:52;13.20;99.90
20735;DHT22;10528;52.124;5.196;2023-04-15T09:47:29;13.20;99.90
20735;DHT22;10528;52.124;5.196;2023-04-15T09:49:58;13.20;99.90
20735;DHT22;10528;52.124;5.196;2023-04-15T09:52:26;13.40;99.90
20735;DHT22;10528;52.124;5.196;2023-04-15T09:54:58;13.80;99.90
20735;DHT22;10528;52.124;5.196;2023-04-15T09:57:33;13.90;99.90
20735;DHT22;10528;52.124;5.196;2023-04-15T10:00:06;14.20;99.90
20735;DHT22;10528;52.124;5.196;2023-04-15T10:02:34;13.90;99.90
20735;DHT22;10528;52.124;5.196;2023-04-15T10:05:03;13.60;99.90
20735;DHT22;10528;52.124;5.196;2023-04-15T10:07:30;13.70;99.90
20735;DHT22;10528;52.124;5.196;2023-04-15T10:09:58;14.00;99.90
20735;DHT22;10528;52.124;5.196;2023-04-15T10:12:28;13.90;99.90
20735;DHT22;10528;52.124;5.196;2023-04-15T10:14:59;13.90;99.90
20735;DHT22;10528;52.124;5.196;2023-04-15T10:17:33;14.10;99.90
20735;DHT22;10528;52.124;5.196;2023-04-15T10:20:03;14.00;99.90
20735;DHT22;10528;52.124;5.196;2023-04-15T10:22:32;13.80;99.90
20735;DHT22;10528;52.124;5.196;2023-04-15T10:24:59;14.30;99.90
20735;DHT22;10528;52.124;5.196;2023-04-15T10:27:26;14.70;99.90
20735;DHT22;10528;52.124;5.196;2023-04-15T10:29:55;14.40;99.90
20735;DHT22;10528;52.124;5.196;2023-04-15T10:32:24;14.50;99.90
20735;DHT22;10528;52.124;5.196;2023-04-15T10:34:53;14.50;99.90
20735;DHT22;10528;52.124;5.196;2023-04-15T10:37:22;14.90;99.90
20735;DHT22;10528;52.124;5.196;2023-04-15T10:40:28;14.50;99.90
20735;DHT22;10528;52.124;5.196;2023-04-15T10:43:01;14.90;99.90
20735;DHT22;10528;52.124;5.196;2023-04-15T10:45:36;15.00;99.90
20735;DHT22;10528;52.124;5.196;2023-04-15T10:48:06;14.90;99.90
20735;DHT22;10528;52.124;5.196;2023-04-15T10:50:36;14.60;99.90
20735;DHT22;10528;52.124;5.196;2023-04-15T10:53:03;14.60;99.90
20735;DHT22;10528;52.124;5.196;2023-04-15T10:55:33;14.50;99.90
20735;DHT22;10528;52.124;5.196;2023-04-15T10:58:01;14.40;99.90
20735;DHT22;10528;52.124;5.196;2023-04-15T11:00:30;14.60;99.90
20735;DHT22;10528;52.124;5.196;2023-04-15T11:03:06;14.60;99.90
20735;DHT22;10528;52.124;5.196;2023-04-15T11:08:11;15.00;99.90
20735;DHT22;10528;52.124;5.196;2023-04-15T11:13:16;14.90;99.90
20735;DHT22;10528;52.124;5.196;2023-04-15T11:15:53;14.90;99.90
20735;DHT22;10528;52.124;5.196;2023-04-15T11:18:25;14.80;99.90
20735;DHT22;10528;52.124;5.196;2023-04-15T11:21:07;15.40;99.90
20735;DHT22;10528;52.124;5.196;2023-04-15T11:23:37;15.20;99.90
20735;DHT22;10528;52.124;5.196;2023-04-15T11:26:08;14.90;99.90
20735;DHT22;10528;52.124;5.196;2023-04-15T11:28:40;15.20;99.90
20735;DHT22;10528;52.124;5.196;2023-04-15T11:31:14;15.40;99.90
20735;DHT22;10528;52.124;5.196;2023-04-15T11:33:58;15.50;99.90
20735;DHT22;10528;52.124;5.196;2023-04-15T11:36:28;15.60;99.90
20735;DHT22;10528;52.124;5.196;2023-04-15T11:38:58;14.90;99.90
20735;DHT22;10528;52.124;5.196;2023-04-15T11:41:25;14.80;99.90
20735;DHT22;10528;52.124;5.196;2023-04-15T11:43:52;14.80;99.90
20735;DHT22;10528;52.124;5.196;2023-04-15T11:46:20;14.80;99.90
20735;DHT22;10528;52.124;5.196;2023-04-15T11:48:48;14.80;99.90
20735;DHT22;10528;52.124;5.196;2023-04-15T11:51:15;15.00;99.90
20735;DHT22;10528;52.124;5.196;2023-04-15T11:53:47;14.70;99.90
20735;DHT22;10528;52.124;5.196;2023-04-15T11:56:25;14.80;99.90
20735;DHT22;10528;52.124;5.196;2023-04-15T11:58:53;14.90;99.90
20735;DHT22;10528;52.124;5.196;2023-04-15T12:01:36;15.10;99.90
20735;DHT22;10528;52.124;5.196;2023-04-15T12:04:15;15.30;99.90
20735;DHT22;10528;52.124;5.196;2023-04-15T12:06:48;15.30;99.90
20735;DHT22;10528;52.124;5.196;2023-04-15T12:09:15;15.20;99.90
20735;DHT22;10528;52.124;5.196;2023-04-15T12:14:27;14.90;99.90
20735;DHT22;10528;52.124;5.196;2023-04-15T12:17:03;15.20;99.90
20735;DHT22;10528;52.124;5.196;2023-04-15T12:19:38;15.20;99.90
20735;DHT22;10528;52.124;5.196;2023-04-15T12:22:09;15.30;99.90
20735;DHT22;10528;52.124;5.196;2023-04-15T12:24:37;15.10;99.90
20735;DHT22;10528;52.124;5.196;2023-04-15T12:27:07;15.10;99.90
20735;DHT22;10528;52.124;5.196;2023-04-15T12:29:36;15.20;99.90
20735;DHT22;10528;52.124;5.196;2023-04-15T12:32:11;15.30;99.90
20735;DHT22;10528;52.124;5.196;2023-04-15T12:34:46;14.90;99.90
20735;DHT22;10528;52.124;5.196;2023-04-15T12:37:16;14.60;99.90
20735;DHT22;10528;52.124;5.196;2023-04-15T12:39:45;14.60;99.90
20735;DHT22;10528;52.124;5.196;2023-04-15T12:42:15;14.80;99.90
20735;DHT22;10528;52.124;5.196;2023-04-15T12:44:43;14.80;99.90
20735;DHT22;10528;52.124;5.196;2023-04-15T12:47:12;14.70;99.90
20735;DHT22;10528;52.124;5.196;2023-04-15T12:49:39;14.90;99.90
20735;DHT22;10528;52.124;5.196;2023-04-15T12:52:06;15.00;99.90
20735;DHT22;10528;52.124;5.196;2023-04-15T12:54:33;15.10;99.90
20735;DHT22;10528;52.124;5.196;2023-04-15T12:57:01;14.90;99.90
20735;DHT22;10528;52.124;5.196;2023-04-15T12:59:32;14.70;99.90
20735;DHT22;10528;52.124;5.196;2023-04-15T13:01:59;14.90;99.90
20735;DHT22;10528;52.124;5.196;2023-04-15T13:04:26;14.60;99.90
20735;DHT22;10528;52.124;5.196;2023-04-15T13:06:56;14.30;99.90
20735;DHT22;10528;52.124;5.196;2023-04-15T13:09:23;14.20;99.90
20735;DHT22;10528;52.124;5.196;2023-04-15T13:11:50;14.50;99.90
20735;DHT22;10528;52.124;5.196;2023-04-15T13:14:18;14.40;99.90
20735;DHT22;10528;52.124;5.196;2023-04-15T13:16:45;14.40;99.90
20735;DHT22;10528;52.124;5.196;2023-04-15T13:19:12;14.40;99.90
20735;DHT22;10528;52.124;5.196;2023-04-15T13:21:40;14.30;99.90
20735;DHT22;10528;52.124;5.196;2023-04-15T13:24:07;14.50;99.90
20735;DHT22;10528;52.124;5.196;2023-04-15T13:26:34;14.00;99.90
20735;DHT22;10528;52.124;5.196;2023-04-15T13:29:03;14.20;99.90
20735;DHT22;10528;52.124;5.196;2023-04-15T13:31:30;14.40;99.90
20735;DHT22;10528;52.124;5.196;2023-04-15T13:33:57;14.50;99.90
20735;DHT22;10528;52.124;5.196;2023-04-15T13:36:24;14.30;99.90
20735;DHT22;10528;52.124;5.196;2023-04-15T13:38:51;14.20;99.90
20735;DHT22;10528;52.124;5.196;2023-04-15T13:41:18;14.40;99.90
20735;DHT22;10528;52.124;5.196;2023-04-15T13:43:46;14.40;99.90
20735;DHT22;10528;52.124;5.196;2023-04-15T13:46:13;14.80;99.90
20735;DHT22;10528;52.124;5.196;2023-04-15T13:48:40;14.60;99.90
20735;DHT22;10528;52.124;5.196;2023-04-15T13:51:07;14.50;99.90
20735;DHT22;10528;52.124;5.196;2023-04-15T13:53:34;14.20;99.90
20735;DHT22;10528;52.124;5.196;2023-04-15T13:56:08;14.00;99.90
20735;DHT22;10528;52.124;5.196;2023-04-15T13:58:36;14.10;99.90
20735;DHT22;10528;52.124;5.196;2023-04-15T14:01:04;13.90;99.90
20735;DHT22;10528;52.124;5.196;2023-04-15T14:03:36;13.80;99.90
20735;DHT22;10528;52.124;5.196;2023-04-15T14:06:04;13.70;99.90
20735;DHT22;10528;52.124;5.196;2023-04-15T14:08:32;13.30;99.90
20735;DHT22;10528;52.124;5.196;2023-04-15T14:10:59;13.40;99.90
20735;DHT22;10528;52.124;5.196;2023-04-15T14:13:26;13.50;99.90
20735;DHT22;10528;52.124;5.196;2023-04-15T14:15:53;13.40;99.90
20735;DHT22;10528;52.124;5.196;2023-04-15T14:18:20;13.30;99.90
20735;DHT22;10528;52.124;5.196;2023-04-15T14:20:46;13.30;99.90
20735;DHT22;10528;52.124;5.196;2023-04-15T14:23:13;13.30;99.90
20735;DHT22;10528;52.124;5.196;2023-04-15T14:25:40;13.40;99.90
20735;DHT22;10528;52.124;5.196;2023-04-15T14:28:07;13.30;99.90
20735;DHT22;10528;52.124;5.196;2023-04-15T14:30:34;13.00;99.90
20735;DHT22;10528;52.124;5.196;2023-04-15T14:33:01;12.90;99.90
20735;DHT22;10528;52.124;5.196;2023-04-15T14:35:29;12.70;99.90
20735;DHT22;10528;52.124;5.196;2023-04-15T14:37:56;12.70;99.90
20735;DHT22;10528;52.124;5.196;2023-04-15T14:40:23;12.60;99.90
20735;DHT22;10528;52.124;5.196;2023-04-15T14:42:50;12.60;99.90
20735;DHT22;10528;52.124;5.196;2023-04-15T14:45:17;12.80;99.90
20735;DHT22;10528;52.124;5.196;2023-04-15T14:47:44;12.70;99.90
20735;DHT22;10528;52.124;5.196;2023-04-15T14:50:11;12.60;99.90
20735;DHT22;10528;52.124;5.196;2023-04-15T14:52:38;12.70;99.90
20735;DHT22;10528;52.124;5.196;2023-04-15T14:55:05;12.60;99.90
20735;DHT22;10528;52.124;5.196;2023-04-15T14:57:33;12.60;99.90
20735;DHT22;10528;52.124;5.196;2023-04-15T15:00:00;12.80;99.90
20735;DHT22;10528;52.124;5.196;2023-04-15T15:02:27;12.70;99.90
20735;DHT22;10528;52.124;5.196;2023-04-15T15:05:05;12.90;99.90
20735;DHT22;10528;52.124;5.196;2023-04-15T15:07:32;12.80;99.90
20735;DHT22;10528;52.124;5.196;2023-04-15T15:09:59;12.70;99.90
20735;DHT22;10528;52.124;5.196;2023-04-15T15:12:26;12.50;99.90
20735;DHT22;10528;52.124;5.196;2023-04-15T15:14:54;12.30;99.90
20735;DHT22;10528;52.124;5.196;2023-04-15T15:17:21;12.20;99.90
20735;DHT22;10528;52.124;5.196;2023-04-15T15:19:48;12.10;99.90
20735;DHT22;10528;52.124;5.196;2023-04-15T15:22:15;12.30;99.90
20735;DHT22;10528;52.124;5.196;2023-04-15T15:24:45;12.30;99.90
20735;DHT22;10528;52.124;5.196;2023-04-15T15:27:11;12.00;99.90
20735;DHT22;10528;52.124;5.196;2023-04-15T15:29:38;12.10;99.90
20735;DHT22;10528;52.124;5.196;2023-04-15T15:32:05;11.80;99.90
20735;DHT22;10528;52.124;5.196;2023-04-15T15:34:33;11.90;99.90
20735;DHT22;10528;52.124;5.196;2023-04-15T15:37:00;11.90;99.90
20735;DHT22;10528;52.124;5.196;2023-04-15T15:39:27;11.80;99.90
20735;DHT22;10528;52.124;5.196;2023-04-15T15:41:54;11.90;99.90
20735;DHT22;10528;52.124;5.196;2023-04-15T15:44:21;11.90;99.90
20735;DHT22;10528;52.124;5.196;2023-04-15T15:46:49;11.60;99.90
20735;DHT22;10528;52.124;5.196;2023-04-15T15:49:16;11.70;99.90
20735;DHT22;10528;52.124;5.196;2023-04-15T15:51:44;11.70;99.90